createdAt,value
2022-08-03T00:00:38.855Z,24.59
2022-08-03T00:01:38.882Z,24.55
2022-08-03T00:02:38.936Z,24.56
2022-08-03T00:03:38.892Z,24.55
2022-08-03T00:04:38.922Z,24.51
2022-08-03T00:05:38.904Z,24.49
2022-08-03T00:06:38.931Z,24.49
2022-08-03T00:07:38.973Z,24.49
2022-08-03T00:08:40.370Z,24.49
2022-08-03T00:09:39.030Z,24.49
2022-08-03T00:10:38.997Z,24.52
2022-08-03T00:11:39.021Z,24.49
2022-08-03T00:12:39.010Z,24.49
2022-08-03T00:13:39.019Z,24.53
2022-08-03T00:14:39.047Z,24.53
2022-08-03T00:15:39.033Z,24.56
2022-08-03T00:16:39.055Z,24.55
2022-08-03T00:17:52.960Z,24.55
2022-08-03T00:18:39.087Z,24.56
2022-08-03T00:19:39.132Z,24.59
2022-08-03T00:20:39.106Z,24.60
2022-08-03T00:21:39.147Z,24.63
2022-08-03T00:22:39.166Z,24.61
2022-08-03T00:23:51.871Z,24.64
2022-08-03T00:24:39.221Z,24.66
2022-08-03T00:25:39.202Z,24.64
2022-08-03T00:26:39.221Z,24.66
2022-08-03T00:27:39.255Z,24.64
2022-08-03T00:28:39.276Z,24.61
2022-08-03T00:29:57.604Z,24.55
2022-08-03T00:30:39.343Z,24.55
2022-08-03T00:31:51.428Z,24.53
2022-08-03T00:32:45.196Z,24.51
2022-08-03T00:33:59.322Z,24.52
2022-08-03T00:34:57.400Z,24.48
2022-08-03T00:35:50.433Z,24.46
2022-08-03T00:36:39.465Z,24.45
2022-08-03T00:37:41.194Z,24.45
2022-08-03T00:38:39.517Z,24.45
2022-08-03T00:39:39.540Z,24.45
2022-08-03T00:40:39.577Z,24.41
2022-08-03T00:41:39.562Z,24.44
2022-08-03T00:42:39.590Z,24.42
2022-08-03T00:43:39.609Z,24.41
2022-08-03T00:44:39.618Z,24.39
2022-08-03T00:45:39.645Z,24.37
2022-08-03T00:46:39.640Z,24.37
2022-08-03T00:47:39.654Z,24.36
2022-08-03T00:48:39.658Z,24.36
2022-08-03T00:49:39.747Z,24.37
2022-08-03T00:50:39.711Z,24.37
2022-08-03T00:51:39.688Z,24.37
2022-08-03T00:52:39.698Z,24.39
2022-08-03T00:53:39.698Z,24.37
2022-08-03T00:54:39.669Z,24.37
2022-08-03T00:55:39.914Z,24.36
2022-08-03T00:56:39.714Z,24.36
2022-08-03T00:57:39.730Z,24.39
2022-08-03T00:58:39.751Z,24.39
2022-08-03T00:59:39.775Z,24.33
2022-08-03T01:00:39.793Z,24.30
2022-08-03T01:01:39.903Z,24.30
2022-08-03T01:02:39.813Z,24.30
2022-08-03T01:03:39.805Z,24.27
2022-08-03T01:04:39.804Z,24.24
2022-08-03T01:05:39.843Z,24.19
2022-08-03T01:06:39.832Z,24.19
2022-08-03T01:07:39.849Z,24.16
2022-08-03T01:08:39.880Z,24.16
2022-08-03T01:09:39.887Z,24.14
2022-08-03T01:10:39.920Z,24.11
2022-08-03T01:12:01.115Z,24.11
2022-08-03T01:12:39.961Z,24.09
2022-08-03T01:14:03.997Z,24.11
2022-08-03T01:14:40.003Z,24.08
2022-08-03T01:15:40.011Z,24.06
2022-08-03T01:16:40.015Z,24.05
2022-08-03T01:17:40.017Z,24.05
2022-08-03T01:18:40.019Z,24.05
2022-08-03T01:19:40.049Z,24.02
2022-08-03T01:20:40.075Z,24.02
2022-08-03T01:21:40.103Z,24.02
2022-08-03T01:22:40.121Z,24.02
2022-08-03T01:23:40.125Z,23.99
2022-08-03T01:24:40.892Z,23.99
2022-08-03T01:25:40.195Z,23.96
2022-08-03T01:26:40.235Z,23.92
2022-08-03T01:27:40.230Z,23.90
2022-08-03T01:28:40.261Z,23.89
2022-08-03T01:29:40.288Z,23.92
2022-08-03T01:30:40.309Z,23.92
2022-08-03T01:32:52.531Z,23.89
2022-08-03T01:32:53.304Z,23.87
2022-08-03T01:33:40.356Z,23.86
2022-08-03T01:34:40.360Z,23.87
2022-08-03T01:35:40.402Z,23.84
2022-08-03T01:36:40.394Z,23.86
2022-08-03T01:37:40.413Z,23.82
2022-08-03T01:38:40.396Z,23.82
2022-08-03T01:39:40.440Z,23.79
2022-08-03T01:40:40.456Z,23.79
2022-08-03T01:41:40.446Z,23.77
2022-08-03T01:42:40.470Z,23.78
2022-08-03T01:44:26.680Z,23.78
2022-08-03T01:44:40.515Z,23.78
2022-08-03T01:45:40.563Z,23.78
2022-08-03T01:46:40.601Z,23.78
2022-08-03T01:47:40.604Z,23.79
2022-08-03T01:48:40.630Z,23.79
2022-08-03T01:49:40.785Z,23.81
2022-08-03T01:50:40.671Z,23.84
2022-08-03T01:51:56.156Z,23.87
2022-08-03T01:52:40.743Z,23.84
2022-08-03T01:53:40.708Z,23.86
2022-08-03T01:54:40.730Z,23.82
2022-08-03T01:55:40.752Z,23.84
2022-08-03T01:56:40.781Z,23.81
2022-08-03T01:58:06.199Z,23.79
2022-08-03T01:58:40.823Z,23.78
2022-08-03T01:59:40.856Z,23.79
2022-08-03T02:00:40.937Z,23.78
2022-08-03T02:02:15.227Z,23.78
2022-08-03T02:02:41.398Z,23.78
2022-08-03T02:03:59.779Z,23.79
2022-08-03T02:04:40.906Z,23.82
2022-08-03T02:05:40.947Z,23.82
2022-08-03T02:07:01.772Z,23.81
2022-08-03T02:07:40.999Z,23.79
2022-08-03T02:08:41.013Z,23.86
2022-08-03T02:09:41.041Z,23.86
2022-08-03T02:10:41.075Z,23.84
2022-08-03T02:11:41.096Z,23.82
2022-08-03T02:12:41.105Z,23.81
2022-08-03T02:13:41.124Z,23.81
2022-08-03T02:14:41.139Z,23.79
2022-08-03T02:15:41.168Z,23.75
2022-08-03T02:16:41.244Z,23.72
2022-08-03T02:17:41.218Z,23.72
2022-08-03T02:18:41.237Z,23.69
2022-08-03T02:19:41.250Z,23.64
2022-08-03T02:20:41.272Z,23.62
2022-08-03T02:21:56.949Z,23.62
2022-08-03T02:22:41.329Z,23.60
2022-08-03T02:23:41.333Z,23.63
2022-08-03T02:24:41.575Z,23.64
2022-08-03T02:25:41.342Z,23.71
2022-08-03T02:26:41.373Z,23.74
2022-08-03T02:27:43.673Z,23.72
2022-08-03T02:28:41.429Z,23.69
2022-08-03T02:29:41.392Z,23.71
2022-08-03T02:30:41.415Z,23.72
2022-08-03T02:31:41.444Z,23.71
2022-08-03T02:32:41.468Z,23.68
2022-08-03T02:33:41.479Z,23.68
2022-08-03T02:34:41.497Z,23.69
2022-08-03T02:35:41.535Z,23.71
2022-08-03T02:36:41.561Z,23.72
2022-08-03T02:37:42.644Z,23.71
2022-08-03T02:38:41.580Z,23.72
2022-08-03T02:39:41.599Z,23.71
2022-08-03T02:40:41.627Z,23.68
2022-08-03T02:41:41.644Z,23.67
2022-08-03T02:42:41.685Z,23.62
2022-08-03T02:44:05.495Z,23.64
2022-08-03T02:44:41.687Z,23.68
2022-08-03T02:45:45.336Z,23.67
2022-08-03T02:46:41.714Z,23.67
2022-08-03T02:47:54.147Z,23.60
2022-08-03T02:48:41.772Z,23.60
2022-08-03T02:49:51.379Z,23.62
2022-08-03T02:50:41.758Z,23.60
2022-08-03T02:51:41.776Z,23.63
2022-08-03T02:52:41.800Z,23.59
2022-08-03T02:53:41.811Z,23.56
2022-08-03T02:54:41.824Z,23.56
2022-08-03T02:55:43.112Z,23.50
2022-08-03T02:56:41.893Z,23.53
2022-08-03T02:57:41.931Z,23.47
2022-08-03T02:58:41.918Z,23.50
2022-08-03T02:59:41.942Z,23.54
2022-08-03T03:00:41.984Z,23.54
2022-08-03T03:01:41.985Z,23.50
2022-08-03T03:02:43.933Z,23.53
2022-08-03T03:03:44.670Z,23.50
2022-08-03T03:05:50.824Z,23.47
2022-08-03T03:05:55.339Z,23.42
2022-08-03T03:06:42.035Z,23.45
2022-08-03T03:07:49.799Z,23.49
2022-08-03T03:08:42.042Z,23.49
2022-08-03T03:09:43.235Z,23.50
2022-08-03T03:10:42.107Z,23.49
2022-08-03T03:11:42.118Z,23.50
2022-08-03T03:12:42.148Z,23.45
2022-08-03T03:13:42.156Z,23.54
2022-08-03T03:14:42.180Z,23.53
2022-08-03T03:15:42.166Z,23.53
2022-08-03T03:16:42.170Z,23.49
2022-08-03T03:17:42.230Z,23.53
2022-08-03T03:18:42.207Z,23.47
2022-08-03T03:19:42.243Z,23.49
2022-08-03T03:20:42.258Z,23.49
2022-08-03T03:21:42.270Z,23.49
2022-08-03T03:22:43.535Z,23.49
2022-08-03T03:23:42.294Z,23.50
2022-08-03T03:24:42.321Z,23.52
2022-08-03T03:25:42.360Z,23.49
2022-08-03T03:26:42.583Z,23.50
2022-08-03T03:27:42.619Z,23.52
2022-08-03T03:28:42.433Z,23.50
2022-08-03T03:29:42.452Z,23.52
2022-08-03T03:30:42.478Z,23.49
2022-08-03T03:31:42.500Z,23.50
2022-08-03T03:32:42.517Z,23.47
2022-08-03T03:33:42.531Z,23.39
2022-08-03T03:34:42.558Z,23.41
2022-08-03T03:35:42.573Z,23.45
2022-08-03T03:36:42.590Z,23.45
2022-08-03T03:37:42.589Z,23.45
2022-08-03T03:38:42.634Z,23.45
2022-08-03T03:39:42.824Z,23.44
2022-08-03T03:40:42.591Z,23.39
2022-08-03T03:41:42.617Z,23.44
2022-08-03T03:42:42.644Z,23.42
2022-08-03T03:43:42.662Z,23.41
2022-08-03T03:44:42.676Z,23.39
2022-08-03T03:45:42.692Z,23.37
2022-08-03T03:46:42.715Z,23.37
2022-08-03T03:47:42.742Z,23.32
2022-08-03T03:48:42.769Z,23.25
2022-08-03T03:49:42.784Z,23.34
2022-08-03T03:50:42.801Z,23.31
2022-08-03T03:51:42.809Z,23.26
2022-08-03T03:52:42.824Z,23.31
2022-08-03T03:53:42.811Z,23.26
2022-08-03T03:54:42.816Z,23.29
2022-08-03T03:56:01.862Z,23.26
2022-08-03T03:56:42.826Z,23.22
2022-08-03T03:57:42.841Z,23.15
2022-08-03T03:58:42.848Z,23.12
2022-08-03T03:59:42.846Z,23.11
2022-08-03T04:00:42.872Z,23.09
2022-08-03T04:01:42.853Z,23.11
2022-08-03T04:02:42.877Z,23.12
2022-08-03T04:03:42.844Z,23.15
2022-08-03T04:04:42.840Z,23.12
2022-08-03T04:05:45.890Z,23.09
2022-08-03T04:06:42.871Z,23.11
2022-08-03T04:07:42.895Z,23.07
2022-08-03T04:08:42.916Z,23.11
2022-08-03T04:09:42.931Z,23.11
2022-08-03T04:10:42.938Z,23.07
2022-08-03T04:11:42.932Z,23.12
2022-08-03T04:12:50.184Z,23.15
2022-08-03T04:13:42.981Z,23.15
2022-08-03T04:14:43.013Z,23.15
2022-08-03T04:15:42.994Z,23.15
2022-08-03T04:16:43.925Z,23.14
2022-08-03T04:17:43.046Z,23.15
2022-08-03T04:18:43.108Z,23.16
2022-08-03T04:19:43.082Z,23.11
2022-08-03T04:20:43.063Z,23.12
2022-08-03T04:21:43.095Z,23.12
2022-08-03T04:22:43.110Z,23.11
2022-08-03T04:23:43.138Z,23.07
2022-08-03T04:24:43.178Z,23.07
2022-08-03T04:25:43.160Z,23.09
2022-08-03T04:26:43.167Z,23.12
2022-08-03T04:27:43.196Z,23.12
2022-08-03T04:28:43.218Z,23.09
2022-08-03T04:29:46.422Z,23.07
2022-08-03T04:30:43.247Z,23.06
2022-08-03T04:31:43.254Z,23.07
2022-08-03T04:32:45.971Z,23.09
2022-08-03T04:33:43.282Z,23.06
2022-08-03T04:34:43.273Z,23.06
2022-08-03T04:36:01.257Z,23.03
2022-08-03T04:36:43.318Z,23.01
2022-08-03T04:37:43.349Z,23.01
2022-08-03T04:38:43.371Z,23.01
2022-08-03T04:39:43.381Z,23.04
2022-08-03T04:40:43.406Z,23.06
2022-08-03T04:42:04.675Z,23.07
2022-08-03T04:42:43.429Z,23.09
2022-08-03T04:43:43.447Z,23.09
2022-08-03T04:44:43.424Z,23.11
2022-08-03T04:45:43.447Z,23.09
2022-08-03T04:46:46.743Z,23.09
2022-08-03T04:47:43.499Z,23.09
2022-08-03T04:48:44.874Z,23.07
2022-08-03T04:49:43.608Z,23.11
2022-08-03T04:50:43.529Z,23.11
2022-08-03T04:51:43.562Z,23.12
2022-08-03T04:52:43.529Z,23.14
2022-08-03T04:53:43.534Z,23.12
2022-08-03T04:54:50.075Z,23.14
2022-08-03T04:55:43.581Z,23.14
2022-08-03T04:56:43.600Z,23.18
2022-08-03T04:57:43.614Z,23.16
2022-08-03T04:58:43.638Z,23.15
2022-08-03T04:59:43.648Z,23.14
2022-08-03T05:02:09.782Z,23.14
2022-08-03T05:03:20.119Z,23.12
2022-08-03T05:04:09.641Z,23.11
2022-08-03T05:05:09.675Z,23.07
2022-08-03T05:06:11.633Z,23.07
2022-08-03T05:07:11.756Z,23.09
2022-08-03T05:08:11.039Z,23.12
2022-08-03T05:09:09.735Z,23.14
2022-08-03T05:10:15.911Z,23.11
2022-08-03T05:11:09.763Z,23.15
2022-08-03T05:12:09.851Z,23.18
2022-08-03T05:13:09.756Z,23.16
2022-08-03T05:14:09.757Z,23.18
2022-08-03T05:15:09.758Z,23.16
2022-08-03T05:16:09.782Z,23.21
2022-08-03T05:17:09.815Z,23.23
2022-08-03T05:18:13.992Z,23.21
2022-08-03T05:19:09.850Z,23.22
2022-08-03T05:20:09.875Z,23.22
2022-08-03T05:21:09.887Z,23.22
2022-08-03T05:22:09.958Z,23.29
2022-08-03T05:23:09.905Z,23.32
2022-08-03T05:24:09.942Z,23.32
2022-08-03T05:25:09.924Z,23.31
2022-08-03T05:26:09.946Z,23.31
2022-08-03T05:27:09.966Z,23.29
2022-08-03T05:28:09.972Z,23.29
2022-08-03T05:29:10.013Z,23.29
2022-08-03T05:30:29.627Z,23.32
2022-08-03T05:31:10.005Z,23.29
2022-08-03T05:32:10.047Z,23.31
2022-08-03T05:33:10.033Z,23.34
2022-08-03T05:34:10.076Z,23.32
2022-08-03T05:35:55.843Z,23.31
2022-08-03T05:36:10.096Z,23.32
2022-08-03T05:37:10.115Z,23.32
2022-08-03T05:38:10.152Z,23.34
2022-08-03T05:39:10.182Z,23.32
2022-08-03T05:40:10.171Z,23.32
2022-08-03T05:41:21.785Z,23.34
2022-08-03T05:42:10.293Z,23.34
2022-08-03T05:43:10.205Z,23.41
2022-08-03T05:44:10.226Z,23.39
2022-08-03T05:45:10.243Z,23.39
2022-08-03T05:46:12.150Z,23.41
2022-08-03T05:47:10.305Z,23.41
2022-08-03T05:48:10.264Z,23.44
2022-08-03T05:49:10.361Z,23.42
2022-08-03T05:50:10.292Z,23.42
2022-08-03T05:51:10.319Z,23.47
2022-08-03T05:52:14.473Z,23.50
2022-08-03T05:53:10.366Z,23.47
2022-08-03T05:54:10.347Z,23.45
2022-08-03T05:55:10.374Z,23.39
2022-08-03T05:56:15.278Z,23.35
2022-08-03T05:57:10.420Z,23.37
2022-08-03T05:58:10.456Z,23.41
2022-08-03T05:59:35.891Z,23.44
2022-08-03T06:00:10.473Z,23.50
2022-08-03T06:01:10.535Z,23.53
2022-08-03T06:02:10.623Z,23.50
2022-08-03T06:03:10.486Z,23.52
2022-08-03T06:04:10.501Z,23.57
2022-08-03T06:05:10.518Z,23.59
2022-08-03T06:06:10.519Z,23.60
2022-08-03T06:07:10.516Z,23.64
2022-08-03T06:08:10.540Z,23.62
2022-08-03T06:09:10.566Z,23.64
2022-08-03T06:10:36.584Z,23.68
2022-08-03T06:11:10.562Z,23.64
2022-08-03T06:12:14.072Z,23.63
2022-08-03T06:13:10.594Z,23.64
2022-08-03T06:14:10.582Z,23.71
2022-08-03T06:15:11.409Z,23.68
2022-08-03T06:16:10.583Z,23.71
2022-08-03T06:17:10.598Z,23.69
2022-08-03T06:18:10.613Z,23.69
2022-08-03T06:19:10.642Z,23.68
2022-08-03T06:20:10.613Z,23.67
2022-08-03T06:21:15.243Z,23.69
2022-08-03T06:22:10.643Z,23.72
2022-08-03T06:23:15.907Z,23.75
2022-08-03T06:24:10.684Z,23.81
2022-08-03T06:25:12.996Z,23.79
2022-08-03T06:26:11.184Z,23.78
2022-08-03T06:27:10.691Z,23.75
2022-08-03T06:28:18.932Z,23.78
2022-08-03T06:29:10.723Z,23.82
2022-08-03T06:30:10.722Z,23.89
2022-08-03T06:31:10.751Z,23.90
2022-08-03T06:32:10.815Z,23.90
2022-08-03T06:33:10.731Z,23.94
2022-08-03T06:34:34.145Z,23.96
2022-08-03T06:35:10.779Z,23.99
2022-08-03T06:36:10.827Z,24.00
2022-08-03T06:37:10.826Z,24.02
2022-08-03T06:38:10.854Z,24.00
2022-08-03T06:39:10.882Z,24.00
2022-08-03T06:40:10.892Z,24.04
2022-08-03T06:41:10.944Z,24.05
2022-08-03T06:42:10.982Z,24.06
2022-08-03T06:43:12.677Z,24.11
2022-08-03T06:44:10.923Z,24.14
2022-08-03T06:45:10.920Z,24.15
2022-08-03T06:46:10.969Z,24.18
2022-08-03T06:47:10.959Z,24.18
2022-08-03T06:48:10.985Z,24.21
2022-08-03T06:49:11.131Z,24.24
2022-08-03T06:50:16.136Z,24.23
2022-08-03T06:51:11.045Z,24.26
2022-08-03T06:52:11.026Z,24.29
2022-08-03T06:53:19.698Z,24.31
2022-08-03T06:54:11.079Z,24.31
2022-08-03T06:55:11.075Z,24.33
2022-08-03T06:56:11.077Z,24.30
2022-08-03T06:57:11.106Z,24.33
2022-08-03T06:58:11.142Z,24.36
2022-08-03T07:00:09.402Z,24.37
2022-08-03T07:00:12.398Z,24.41
2022-08-03T07:01:11.310Z,24.44
2022-08-03T07:02:11.204Z,24.45
2022-08-03T07:03:11.228Z,24.46
2022-08-03T07:04:11.268Z,24.48
2022-08-03T07:05:11.236Z,24.48
2022-08-03T07:06:11.249Z,24.48
2022-08-03T07:07:11.277Z,24.49
2022-08-03T07:08:11.294Z,24.52
2022-08-03T07:09:11.348Z,24.52
2022-08-03T07:10:11.330Z,24.51
2022-08-03T07:11:11.333Z,24.51
2022-08-03T07:12:11.374Z,24.53
2022-08-03T07:13:11.356Z,24.55
2022-08-03T07:14:11.353Z,24.59
2022-08-03T07:15:20.410Z,24.60
2022-08-03T07:16:11.407Z,24.64
2022-08-03T07:17:11.709Z,24.67
2022-08-03T07:18:11.451Z,24.66
2022-08-03T07:19:11.487Z,24.68
2022-08-03T07:20:11.526Z,24.71
2022-08-03T07:21:11.493Z,24.77
2022-08-03T07:22:11.518Z,24.79
2022-08-03T07:23:19.053Z,24.79
2022-08-03T07:24:11.563Z,24.80
2022-08-03T07:25:11.595Z,24.82
2022-08-03T07:26:11.579Z,24.83
2022-08-03T07:27:11.621Z,24.82
2022-08-03T07:28:11.648Z,24.83
2022-08-03T07:29:14.915Z,24.83
2022-08-03T07:30:11.654Z,24.86
2022-08-03T07:31:11.672Z,24.87
2022-08-03T07:32:11.652Z,24.89
2022-08-03T07:33:11.656Z,24.90
2022-08-03T07:34:11.683Z,24.90
2022-08-03T07:35:24.944Z,24.90
2022-08-03T07:36:11.722Z,24.93
2022-08-03T07:37:11.738Z,24.97
2022-08-03T07:38:11.757Z,24.97
2022-08-03T07:39:16.706Z,24.98
2022-08-03T07:40:11.799Z,24.99
2022-08-03T07:41:11.826Z,24.99
2022-08-03T07:42:11.843Z,25.02
2022-08-03T07:43:11.880Z,25.04
2022-08-03T07:44:11.865Z,25.07
2022-08-03T07:45:16.574Z,25.07
2022-08-03T07:46:11.862Z,25.09
2022-08-03T07:47:22.322Z,25.09
2022-08-03T07:48:12.704Z,25.11
2022-08-03T07:49:11.975Z,25.14
2022-08-03T07:50:11.873Z,25.16
2022-08-03T07:51:11.897Z,25.16
2022-08-03T07:52:11.902Z,25.19
2022-08-03T07:53:11.916Z,25.22
2022-08-03T07:54:11.960Z,25.22
2022-08-03T07:55:11.981Z,25.23
2022-08-03T07:56:12.007Z,25.23
2022-08-03T07:57:12.034Z,25.26
2022-08-03T07:58:12.032Z,25.27
2022-08-03T07:59:12.063Z,25.27
2022-08-03T08:00:12.078Z,25.30
2022-08-03T08:01:12.209Z,25.30
2022-08-03T08:02:12.093Z,25.35
2022-08-03T08:03:12.104Z,25.36
2022-08-03T08:04:12.154Z,25.38
2022-08-03T08:05:12.125Z,25.39
2022-08-03T08:06:12.146Z,25.42
2022-08-03T08:07:12.159Z,25.42
2022-08-03T08:08:12.168Z,25.42
2022-08-03T08:09:12.187Z,25.44
2022-08-03T08:10:12.218Z,25.45
2022-08-03T08:11:12.216Z,25.49
2022-08-03T08:12:15.178Z,25.48
2022-08-03T08:13:12.202Z,25.51
2022-08-03T08:14:12.222Z,25.54
2022-08-03T08:15:12.234Z,25.54
2022-08-03T08:16:12.254Z,25.56
2022-08-03T08:17:12.240Z,25.57
2022-08-03T08:18:12.222Z,25.57
2022-08-03T08:19:12.772Z,25.60
2022-08-03T08:20:12.253Z,25.60
2022-08-03T08:21:12.291Z,25.61
2022-08-03T08:22:12.306Z,25.63
2022-08-03T08:23:36.234Z,25.64
2022-08-03T08:24:15.249Z,25.67
2022-08-03T08:25:12.333Z,25.69
2022-08-03T08:26:12.353Z,25.69
2022-08-03T08:27:12.379Z,25.71
2022-08-03T08:28:29.705Z,25.74
2022-08-03T08:29:12.408Z,25.76
2022-08-03T08:30:15.974Z,25.78
2022-08-03T08:31:12.438Z,25.78
2022-08-03T08:32:12.515Z,25.81
2022-08-03T08:33:22.137Z,25.81
2022-08-03T08:34:12.519Z,25.83
2022-08-03T08:35:12.518Z,25.83
2022-08-03T08:36:15.371Z,25.85
2022-08-03T08:37:12.569Z,25.86
2022-08-03T08:38:12.596Z,25.89
2022-08-03T08:39:12.612Z,25.90
2022-08-03T08:40:12.617Z,25.91
2022-08-03T08:41:12.654Z,25.93
2022-08-03T08:42:12.757Z,25.94
2022-08-03T08:43:12.708Z,25.96
2022-08-03T08:44:12.726Z,25.96
2022-08-03T08:45:12.727Z,25.98
2022-08-03T08:46:12.762Z,26.00
2022-08-03T08:47:12.769Z,26.01
2022-08-03T08:48:12.802Z,26.01
2022-08-03T08:49:12.907Z,26.04
2022-08-03T08:50:15.544Z,26.04
2022-08-03T08:51:12.870Z,26.06
2022-08-03T08:52:25.181Z,26.06
2022-08-03T08:53:18.181Z,26.09
2022-08-03T08:54:12.932Z,26.12
2022-08-03T08:55:12.962Z,26.12
2022-08-03T08:56:12.959Z,26.13
2022-08-03T08:57:33.600Z,26.16
2022-08-03T08:58:13.018Z,26.16
2022-08-03T08:59:13.040Z,26.19
2022-08-03T09:00:13.068Z,26.20
2022-08-03T09:01:13.151Z,26.21
2022-08-03T09:02:13.167Z,26.23
2022-08-03T09:03:13.164Z,26.23
2022-08-03T09:04:13.145Z,26.21
2022-08-03T09:05:13.167Z,26.24
2022-08-03T09:06:13.175Z,26.27
2022-08-03T09:07:19.977Z,26.29
2022-08-03T09:08:13.199Z,26.31
2022-08-03T09:09:28.510Z,26.32
2022-08-03T09:10:13.809Z,26.32
2022-08-03T09:11:13.246Z,26.34
2022-08-03T09:12:37.566Z,26.35
2022-08-03T09:13:13.280Z,26.35
2022-08-03T09:14:39.473Z,26.36
2022-08-03T09:15:17.215Z,26.39
2022-08-03T09:16:13.286Z,26.41
2022-08-03T09:17:17.355Z,26.42
2022-08-03T09:18:13.459Z,26.42
2022-08-03T09:19:13.301Z,26.46
2022-08-03T09:20:13.317Z,26.47
2022-08-03T09:21:30.094Z,26.49
2022-08-03T09:22:13.362Z,26.50
2022-08-03T09:23:51.812Z,26.51
2022-08-03T09:24:31.181Z,26.51
2022-08-03T09:25:24.331Z,26.53
2022-08-03T09:26:13.432Z,26.56
2022-08-03T09:27:13.487Z,26.57
2022-08-03T09:28:13.462Z,26.59
2022-08-03T09:29:15.278Z,26.60
2022-08-03T09:30:32.492Z,26.64
2022-08-03T09:31:13.482Z,26.61
2022-08-03T09:32:14.920Z,26.64
2022-08-03T09:33:13.546Z,26.66
2022-08-03T09:34:13.570Z,26.66
2022-08-03T09:35:13.588Z,26.68
2022-08-03T09:36:13.615Z,26.69
2022-08-03T09:37:13.745Z,26.71
2022-08-03T09:38:14.424Z,26.72
2022-08-03T09:39:13.680Z,26.73
2022-08-03T09:40:13.697Z,26.75
2022-08-03T09:41:13.719Z,26.76
2022-08-03T09:42:14.720Z,26.78
2022-08-03T09:43:13.785Z,26.78
2022-08-03T09:44:24.211Z,26.79
2022-08-03T09:45:13.785Z,26.81
2022-08-03T09:46:13.785Z,26.81
2022-08-03T09:47:13.803Z,26.84
2022-08-03T09:48:13.825Z,26.84
2022-08-03T09:49:13.933Z,26.86
2022-08-03T09:50:13.975Z,26.87
2022-08-03T09:51:32.829Z,26.88
2022-08-03T09:52:32.367Z,26.91
2022-08-03T09:53:13.941Z,26.91
2022-08-03T09:54:20.386Z,26.93
2022-08-03T09:56:30.945Z,26.94
2022-08-03T09:56:35.585Z,26.94
2022-08-03T09:57:14.096Z,26.96
2022-08-03T09:58:14.048Z,26.97
2022-08-03T09:59:14.069Z,26.98
2022-08-03T10:00:14.084Z,26.97
2022-08-03T10:01:23.935Z,27.01
2022-08-03T10:02:14.100Z,27.02
2022-08-03T10:03:14.083Z,27.02
2022-08-03T10:04:14.092Z,27.03
2022-08-03T10:05:19.403Z,27.05
2022-08-03T10:06:14.111Z,27.06
2022-08-03T10:07:14.126Z,27.08
2022-08-03T10:08:14.138Z,27.08
2022-08-03T10:09:14.165Z,27.11
2022-08-03T10:10:30.549Z,27.11
2022-08-03T10:11:14.264Z,27.12
2022-08-03T10:12:14.226Z,27.12
2022-08-03T10:13:14.231Z,27.12
2022-08-03T10:14:14.230Z,27.15
2022-08-03T10:16:22.594Z,27.18
2022-08-03T10:16:23.486Z,27.16
2022-08-03T10:17:14.302Z,27.20
2022-08-03T10:18:14.334Z,27.20
2022-08-03T10:19:14.315Z,27.23
2022-08-03T10:20:14.288Z,27.21
2022-08-03T10:21:14.305Z,27.24
2022-08-03T10:22:14.323Z,27.25
2022-08-03T10:23:14.351Z,27.27
2022-08-03T10:24:14.368Z,27.27
2022-08-03T10:25:14.358Z,27.30
2022-08-03T10:26:14.376Z,27.31
2022-08-03T10:27:14.382Z,27.33
2022-08-03T10:28:14.400Z,27.34
2022-08-03T10:29:14.436Z,27.34
2022-08-03T10:30:14.424Z,27.35
2022-08-03T10:31:14.510Z,27.39
2022-08-03T10:32:14.432Z,27.39
2022-08-03T10:33:49.552Z,27.40
2022-08-03T10:34:14.486Z,27.42
2022-08-03T10:35:19.645Z,27.43
2022-08-03T10:36:14.449Z,27.43
2022-08-03T10:37:14.468Z,27.43
2022-08-03T10:38:14.489Z,27.45
2022-08-03T10:39:16.219Z,27.46
2022-08-03T10:40:33.254Z,27.49
2022-08-03T10:41:14.573Z,27.49
2022-08-03T10:42:14.971Z,27.50
2022-08-03T10:43:14.631Z,27.52
2022-08-03T10:44:14.656Z,27.52
2022-08-03T10:45:14.686Z,27.53
2022-08-03T10:46:14.685Z,27.58
2022-08-03T10:47:14.710Z,27.58
2022-08-03T10:48:14.738Z,27.59
2022-08-03T10:49:14.848Z,27.61
2022-08-03T10:50:14.802Z,27.61
2022-08-03T10:51:14.840Z,27.63
2022-08-03T10:52:31.844Z,27.63
2022-08-03T10:53:18.626Z,27.66
2022-08-03T10:54:14.821Z,27.66
2022-08-03T10:55:14.830Z,27.68
2022-08-03T10:56:14.858Z,27.69
2022-08-03T10:57:14.898Z,27.71
2022-08-03T10:58:14.851Z,27.74
2022-08-03T10:59:27.448Z,27.76
2022-08-03T11:00:14.930Z,27.76
2022-08-03T11:01:14.979Z,27.76
2022-08-03T11:02:14.930Z,27.76
2022-08-03T11:03:14.942Z,27.77
2022-08-03T11:04:17.002Z,27.78
2022-08-03T11:05:14.993Z,27.78
2022-08-03T11:06:14.975Z,27.80
2022-08-03T11:07:15.165Z,27.80
2022-08-03T11:08:14.991Z,27.81
2022-08-03T11:09:15.011Z,27.84
2022-08-03T11:10:15.030Z,27.84
2022-08-03T11:11:15.016Z,27.83
2022-08-03T11:12:15.054Z,27.86
2022-08-03T11:13:15.029Z,27.87
2022-08-03T11:14:15.040Z,27.86
2022-08-03T11:15:15.040Z,27.87
2022-08-03T11:16:19.822Z,27.88
2022-08-03T11:17:15.064Z,27.88
2022-08-03T11:18:15.090Z,27.88
2022-08-03T11:19:15.122Z,27.90
2022-08-03T11:20:15.126Z,27.91
2022-08-03T11:21:15.159Z,27.93
2022-08-03T11:22:15.179Z,27.93
2022-08-03T11:23:15.194Z,27.95
2022-08-03T11:24:15.211Z,27.95
2022-08-03T11:25:53.645Z,27.96
2022-08-03T11:26:15.267Z,27.98
2022-08-03T11:27:15.248Z,27.98
2022-08-03T11:28:15.264Z,27.99
2022-08-03T11:29:15.294Z,27.99
2022-08-03T11:30:15.314Z,27.99
2022-08-03T11:31:39.256Z,27.98
2022-08-03T11:32:19.420Z,27.99
2022-08-03T11:33:15.378Z,28.01
2022-08-03T11:34:15.385Z,27.99
2022-08-03T11:35:15.430Z,28.01
2022-08-03T11:36:15.406Z,28.02
2022-08-03T11:37:15.428Z,28.05
2022-08-03T11:38:15.453Z,28.05
2022-08-03T11:39:17.051Z,28.05
2022-08-03T11:40:15.492Z,28.06
2022-08-03T11:41:15.520Z,28.06
2022-08-03T11:42:15.525Z,28.05
2022-08-03T11:43:15.717Z,28.08
2022-08-03T11:44:15.582Z,28.11
2022-08-03T11:45:15.563Z,28.11
2022-08-03T11:46:15.601Z,28.11
2022-08-03T11:47:15.578Z,28.11
2022-08-03T11:48:15.587Z,28.13
2022-08-03T11:49:15.620Z,28.14
2022-08-03T11:50:15.629Z,28.15
2022-08-03T11:51:15.625Z,28.15
2022-08-03T11:52:15.632Z,28.14
2022-08-03T11:53:15.651Z,28.15
2022-08-03T11:54:15.680Z,28.14
2022-08-03T11:55:15.711Z,28.15
2022-08-03T11:56:15.733Z,28.17
2022-08-03T11:57:15.803Z,28.17
2022-08-03T11:59:09.412Z,28.15
2022-08-03T11:59:19.924Z,28.20
2022-08-03T12:00:15.785Z,28.20
2022-08-03T12:01:18.873Z,28.21
2022-08-03T12:02:15.834Z,28.23
2022-08-03T12:03:15.961Z,28.23
2022-08-03T12:04:15.873Z,28.23
2022-08-03T12:05:15.888Z,28.24
2022-08-03T12:06:15.919Z,28.27
2022-08-03T12:08:02.218Z,28.28
2022-08-03T12:08:15.948Z,28.25
2022-08-03T12:09:15.963Z,28.23
2022-08-03T12:10:15.990Z,28.20
2022-08-03T12:11:16.003Z,28.18
2022-08-03T12:12:16.061Z,28.17
2022-08-03T12:14:33.106Z,28.14
2022-08-03T12:14:49.816Z,28.13
2022-08-03T12:15:16.056Z,28.13
2022-08-03T12:16:16.078Z,28.11
2022-08-03T12:17:16.276Z,28.08
2022-08-03T12:18:16.091Z,28.06
2022-08-03T12:19:16.043Z,28.05
2022-08-03T12:20:16.073Z,28.03
2022-08-03T12:21:16.103Z,28.03
2022-08-03T12:22:16.102Z,28.03
2022-08-03T12:23:16.132Z,28.03
2022-08-03T12:24:16.161Z,28.02
2022-08-03T12:25:16.176Z,28.02
2022-08-03T12:26:16.130Z,27.99
2022-08-03T12:27:16.572Z,27.99
2022-08-03T12:28:36.149Z,27.99
2022-08-03T12:29:16.177Z,27.98
2022-08-03T12:30:16.196Z,27.96
2022-08-03T12:31:16.213Z,27.95
2022-08-03T12:32:16.231Z,27.96
2022-08-03T12:33:16.261Z,27.95
2022-08-03T12:34:16.257Z,27.95
2022-08-03T12:35:16.351Z,27.93
2022-08-03T12:36:16.309Z,27.93
2022-08-03T12:37:20.270Z,27.91
2022-08-03T12:38:16.368Z,27.91
2022-08-03T12:39:16.344Z,27.91
2022-08-03T12:40:20.546Z,27.93
2022-08-03T12:41:16.373Z,27.93
2022-08-03T12:42:16.393Z,27.93
2022-08-03T12:43:16.425Z,27.93
2022-08-03T12:44:16.402Z,27.95
2022-08-03T12:45:16.439Z,27.93
2022-08-03T12:46:16.462Z,27.95
2022-08-03T12:47:16.709Z,27.95
2022-08-03T12:48:16.508Z,27.96
2022-08-03T12:49:16.582Z,27.95
2022-08-03T12:50:16.463Z,27.95
2022-08-03T12:51:16.499Z,27.95
2022-08-03T12:52:16.534Z,27.96
2022-08-03T12:53:16.571Z,27.96
2022-08-03T12:54:16.581Z,27.96